CYVO

Val-D'or Airport

Val-D'or, , Canada
TAF CYVO 201738Z 2018/2106 20010KT P6SM FEW020 SCT180 BECMG 2022/2024 16005KT RMK NXT FCST BY 210000Z
Issued Valid From Valid To
Jul-20 @ 17:38 UTC
(5 hours ago)
Jul-20 @ 18:00 UTC
(4 hours ago)
Jul-21 @ 06:00 UTC
(in 8 hours)
Expired Click to View Jul-20 @ 18:00 to Jul-20 @ 22:00
TAF CYVO 201738Z 2018/2106 20010KT P6SM FEW020 SCT180
Wind Visibility Clouds
200° at 10 knots Greater than 6 miles
  • Few at 2,000' AGL
  • Scattered at 18,000' AGL
Becoming Jul-20 @ 22:00 to Jul-21 @ 06:00
BECMG 2022/2024 16005KT RMK NXT FCST BY 210000Z
Wind Visibility Clouds
160° at 5 knots Greater than 6 miles
  • Few at 2,000' AGL
  • Scattered at 18,000' AGL
TAF CYVO 201738Z 2018/2106 20010KT P6SM FEW020 SCT180 BECMG 2022/2024 16005KT RMK NXT FCST BY 210000Z
Issued Jul-20 @ 17:38 UTC
(5 hours ago)
Valid From Jul-20 @ 18:00 UTC
(4 hours ago)
Valid To Jul-21 @ 06:00 UTC
(in 8 hours)
Jul-20 @ 18:00 - Jul-20 @ 22:00
Wind Visibility
200° at 10 knots Greater than 6 miles
Clouds
  • Few at 2,000' AGL
  • Scattered at 18,000' AGL
Becoming Jul-20 @ 22:00 - Jul-21 @ 06:00
Wind Visibility
160° at 5 knots Greater than 6 miles
Clouds
  • Few at 2,000' AGL
  • Scattered at 18,000' AGL